Time;durP1;ratioP1;P1;durP2;ratioP2;P2;SDS_P1;SDS_P2;PMS_P1;PMS_P2;Temp;Humidity;BMP_temperature;BMP_pressure;BME280_temperature;BME280_humidity;BME280_pressure;Samples;Min_cycle;Max_cycle;Signal;HPM_P1;HPM_P2
2022/09/27 00:01:11;;;;;;;7.35;1.60;;;;;;;9.37;100.00;99540.66;5052151;28;20088;-69
2022/09/27 00:03:39;;;;;;;12.95;1.80;;;;;;;9.37;99.99;99539.81;5053967;28;20048;-69
2022/09/27 00:06:27;;;;;;;6.10;1.60;;;;;;;9.37;100.00;99540.66;5050832;28;20050;-69
2022/09/27 00:08:56;;;;;;;7.43;1.70;;;;;;;9.33;99.99;99542.56;5049839;28;20041;-69
2022/09/27 00:11:34;;;;;;;10.15;1.80;;;;;;;9.32;100.00;99545.28;5049929;28;20041;-69
2022/09/27 00:14:03;;;;;;;7.55;1.73;;;;;;;9.33;100.00;99545.22;5055926;28;20794;-70
2022/09/27 00:16:34;;;;;;;7.53;1.52;;;;;;;9.32;99.90;99554.00;5050917;28;20041;-69
2022/09/27 00:19:07;;;;;;;8.18;1.80;;;;;;;9.33;99.76;99563.63;5064097;28;20519;-69
2022/09/27 00:21:35;;;;;;;5.68;1.77;;;;;;;9.31;99.94;99568.09;5051705;28;20475;-69
2022/09/27 00:24:05;;;;;;;8.05;1.50;;;;;;;9.31;99.82;99573.34;5060325;28;20041;-69
2022/09/27 00:26:32;;;;;;;5.80;1.10;;;;;;;9.33;99.72;99574.13;5054111;28;20049;-70
2022/09/27 00:28:59;;;;;;;10.70;2.22;;;;;;;9.33;99.60;99574.13;5053618;28;20485;-70
2022/09/27 00:31:29;;;;;;;7.88;1.50;;;;;;;9.32;99.87;99579.47;5049768;28;20038;-70
2022/09/27 00:34:01;;;;;;;12.00;1.40;;;;;;;9.31;99.93;99568.09;5062542;28;20495;-70
2022/09/27 00:36:30;;;;;;;7.40;1.48;;;;;;;9.29;99.89;99575.22;5068679;28;20486;-70
2022/09/27 00:39:00;;;;;;;8.90;1.38;;;;;;;9.27;100.00;99581.44;5063119;28;20049;-70
2022/09/27 00:41:36;;;;;;;5.47;1.20;;;;;;;9.25;99.91;99578.91;5067186;28;20800;-70
2022/09/27 00:44:25;;;;;;;7.40;1.55;;;;;;;9.26;100.00;99591.13;5065103;28;20124;-70
2022/09/27 00:47:36;;;;;;;12.00;1.73;;;;;;;9.20;100.00;99575.63;5037030;28;20128;-70
2022/09/27 00:50:31;;;;;;;7.28;1.40;;;;;;;9.16;100.00;99581.94;5069319;28;20079;-69
2022/09/27 00:53:23;;;;;;;8.20;1.20;;;;;;;9.14;100.00;99581.16;5060122;28;20045;-70
2022/09/27 00:56:01;;;;;;;6.38;1.10;;;;;;;9.12;100.00;99581.22;5054671;28;20064;-70
2022/09/27 00:58:36;;;;;;;9.75;1.48;;;;;;;9.10;100.00;99590.94;5058429;28;20153;-70
2022/09/27 01:01:12;;;;;;;10.38;1.20;;;;;;;9.08;100.00;99581.44;5062229;28;20048;-70
2022/09/27 01:03:51;;;;;;;11.20;1.35;;;;;;;9.04;100.00;99579.84;5057840;28;20097;-69
2022/09/27 01:06:21;;;;;;;7.38;1.30;;;;;;;9.01;100.00;99586.09;5060850;28;20048;-69
2022/09/27 01:08:48;;;;;;;9.25;1.20;;;;;;;8.98;100.00;99578.34;5057077;28;20076;-70
2022/09/27 01:11:44;;;;;;;8.70;1.65;;;;;;;8.97;100.00;99579.25;5055549;28;20049;-69
2022/09/27 01:14:20;;;;;;;;;;;;;;;8.94;100.00;99585.50;5064299;28;20053;-70
2022/09/27 01:17:26;;;;;;;10.43;2.00;;;;;;;8.94;100.00;99584.66;5073571;28;19928;-70
2022/09/27 01:20:51;;;;;;;6.30;1.20;;;;;;;8.94;100.00;99598.66;5069168;28;20037;-71
2022/09/27 01:23:59;;;;;;;10.00;1.33;;;;;;;8.96;100.00;99593.31;5051960;28;20045;-71
2022/09/27 01:26:59;;;;;;;7.15;2.00;;;;;;;8.97;100.00;99587.16;5063716;28;20478;-71
2022/09/27 01:29:55;;;;;;;5.10;1.13;;;;;;;9.02;100.00;99586.03;5069959;28;20049;-71
2022/09/27 01:32:47;;;;;;;13.10;1.85;;;;;;;9.04;100.00;99599.13;5065424;28;20060;-71
2022/09/27 01:35:52;;;;;;;7.22;1.27;;;;;;;9.06;100.00;99585.91;5069319;28;20087;-70
2022/09/27 01:39:07;;;;;;;8.80;1.17;;;;;;;9.09;100.00;99585.78;5060318;28;20041;-71
2022/09/27 01:42:14;;;;;;;6.80;1.33;;;;;;;9.09;100.00;99593.66;5062722;28;20041;-70
2022/09/27 01:45:21;;;;;;;7.53;1.45;;;;;;;9.07;100.00;99595.50;5051800;28;20049;-70
2022/09/27 01:48:18;;;;;;;10.77;1.40;;;;;;;9.04;100.00;99593.00;5059151;28;20045;-71
2022/09/27 01:51:25;;;;;;;10.20;1.77;;;;;;;9.01;100.00;99601.88;5063098;28;20229;-71
2022/09/27 01:54:01;;;;;;;9.40;1.45;;;;;;;8.97;100.00;99608.16;5053244;28;20113;-71
2022/09/27 01:57:01;;;;;;;8.25;1.42;;;;;;;8.94;100.00;99605.69;5038588;28;20057;-69
2022/09/27 01:59:50;;;;;;;4.38;1.20;;;;;;;8.93;100.00;99610.09;5067467;28;20068;-69
2022/09/27 02:03:00;;;;;;;4.18;1.50;;;;;;;8.92;100.00;99610.16;5051302;28;20037;-69
2022/09/27 02:05:46;;;;;;;4.55;1.30;;;;;;;8.91;100.00;99603.19;5051865;28;20088;-69
2022/09/27 02:08:44;;;;;;;8.85;1.33;;;;;;;8.93;100.00;99610.09;5059592;28;20147;-69
2022/09/27 02:11:21;;;;;;;8.32;1.27;;;;;;;8.95;100.00;99607.41;5069547;28;20049;-69
2022/09/27 02:14:10;;;;;;;4.97;1.10;;;;;;;8.94;100.00;99606.53;5059433;28;20041;-69
2022/09/27 02:16:54;;;;;;;8.38;1.73;;;;;;;8.96;100.00;99611.72;5055076;28;20807;-69
2022/09/27 02:20:03;;;;;;;10.75;1.30;;;;;;;8.96;100.00;99612.59;5068616;28;20037;-69
2022/09/27 02:22:52;;;;;;;6.57;1.50;;;;;;;8.96;100.00;99609.09;5064610;28;20038;-69
2022/09/27 02:25:33;;;;;;;3.78;1.08;;;;;;;8.94;100.00;99603.91;5051486;28;20064;-69
2022/09/27 02:28:21;;;;;;;7.75;1.40;;;;;;;8.93;100.00;99610.09;5065497;28;20041;-69
2022/09/27 02:30:49;;;;;;;5.25;1.60;;;;;;;8.92;100.00;99610.16;5063842;28;20073;-69
2022/09/27 02:33:30;;;;;;;6.80;1.15;;;;;;;8.93;100.00;99610.09;5060412;28;20522;-69
2022/09/27 02:35:58;;;;;;;5.85;1.30;;;;;;;8.90;100.00;99615.50;5082001;28;20045;-69
2022/09/27 02:38:28;;;;;;;5.75;1.33;;;;;;;8.90;100.00;99617.25;5068634;28;20148;-69
2022/09/27 02:40:57;;;;;;;8.07;1.50;;;;;;;8.86;100.00;99616.53;5061759;28;20099;-69
2022/09/27 02:43:31;;;;;;;5.28;0.90;;;;;;;8.85;100.00;99606.94;5060194;28;20037;-70
2022/09/27 02:46:39;;;;;;;7.57;1.10;;;;;;;8.83;100.00;99614.03;5069146;28;20041;-69
2022/09/27 02:49:58;;;;;;;3.42;1.13;;;;;;;8.81;100.00;99610.59;5054511;28;20077;-69
2022/09/27 02:53:15;;;;;;;3.53;0.85;;;;;;;8.76;100.00;99609.97;5050826;28;20191;-69
2022/09/27 02:56:05;;;;;;;;;;;;;;;8.73;100.00;99610.06;5056914;28;20042;-69
2022/09/27 02:59:36;;;;;;;7.43;1.23;;;;;;;8.72;100.00;99609.25;5061959;28;19994;-73
2022/09/27 03:02:56;;;;;;;4.55;0.88;;;;;;;8.69;100.00;99612.00;5059274;28;20067;-73
2022/09/27 03:05:30;;;;;;;4.07;0.90;;;;;;;8.67;100.00;99614.69;5054936;28;20042;-73
2022/09/27 03:07:58;;;;;;;5.65;0.90;;;;;;;8.66;100.00;99609.47;5057000;28;20050;-73
2022/09/27 03:10:27;;;;;;;5.45;0.77;;;;;;;8.68;100.00;99621.66;5062516;28;20074;-69
2022/09/27 03:12:57;;;;;;;7.30;0.75;;;;;;;8.67;100.00;99612.06;5067759;28;20048;-69
2022/09/27 03:15:24;;;;;;;8.30;1.10;;;;;;;8.66;100.00;99610.34;5059538;28;20519;-69
2022/09/27 03:18:02;;;;;;;4.57;0.88;;;;;;;8.64;100.00;99608.72;5063382;28;20056;-70
2022/09/27 03:20:41;;;;;;;6.15;0.98;;;;;;;8.61;100.00;99614.94;5064159;28;20102;-69
2022/09/27 03:23:14;;;;;;;6.35;1.45;;;;;;;8.61;100.00;99620.19;5067223;28;20033;-69
2022/09/27 03:25:41;;;;;;;5.47;1.00;;;;;;;8.60;100.00;99615.84;5054150;28;20057;-69
2022/09/27 03:28:12;;;;;;;10.50;1.38;;;;;;;8.58;100.00;99615.06;5052310;28;20092;-69
2022/09/27 03:30:43;;;;;;;5.32;1.00;;;;;;;8.57;100.00;99618.63;5059548;28;20080;-71
2022/09/27 03:33:12;;;;;;;6.05;1.00;;;;;;;8.58;100.00;99619.47;5062464;28;20106;-72
2022/09/27 03:35:45;;;;;;;6.70;0.88;;;;;;;8.57;100.00;99615.13;5059025;28;20128;-70
2022/09/27 03:38:13;;;;;;;6.55;1.17;;;;;;;8.54;100.00;99624.88;5055283;28;20133;-69
2022/09/27 03:40:40;;;;;;;6.60;1.38;;;;;;;8.54;100.00;99624.00;5070603;28;20039;-68
2022/09/27 03:43:08;;;;;;;2.72;0.70;;;;;;;8.53;100.00;99619.66;5075851;28;20542;-69
2022/09/27 03:45:36;;;;;;;5.05;0.90;;;;;;;8.52;100.00;99628.44;5048431;28;20050;-69
2022/09/27 03:48:06;;;;;;;4.72;1.10;;;;;;;8.50;100.00;99625.03;5051941;28;20046;-68
2022/09/27 03:50:34;;;;;;;5.00;0.70;;;;;;;8.48;100.00;99621.63;5065051;28;20567;-68
2022/09/27 03:53:01;;;;;;;6.45;1.15;;;;;;;8.45;100.00;99619.94;5052103;28;20052;-69
2022/09/27 03:55:28;;;;;;;5.82;1.05;;;;;;;8.44;100.00;99627.88;5056696;28;20034;-69
2022/09/27 03:57:55;;;;;;;5.05;1.02;;;;;;;8.43;100.00;99624.41;5081605;28;20048;-69
2022/09/27 04:00:23;;;;;;;5.82;1.05;;;;;;;8.44;100.00;99627.88;5056970;28;20049;-69
2022/09/27 04:02:50;;;;;;;9.85;1.05;;;;;;;8.42;100.00;99633.22;5063193;28;20041;-69
2022/09/27 04:05:25;;;;;;;3.63;0.75;;;;;;;8.43;100.00;99634.03;5060506;28;20038;-70
2022/09/27 04:07:58;;;;;;;8.57;1.83;;;;;;;8.42;100.00;99642.84;5066322;28;20104;-69
2022/09/27 04:10:25;;;;;;;5.82;1.05;;;;;;;8.39;100.00;99634.16;5063683;28;20111;-69
2022/09/27 04:12:53;;;;;;;6.97;1.08;;;;;;;8.40;99.48;99637.66;5064928;28;20113;-69
2022/09/27 04:15:22;;;;;;;6.28;0.88;;;;;;;8.38;99.61;99637.72;5067702;28;20411;-69
2022/09/27 04:17:50;;;;;;;3.58;1.15;;;;;;;8.37;99.39;99632.53;5066364;28;20055;-69
2022/09/27 04:20:46;;;;;;;4.57;1.13;;;;;;;8.40;99.01;99633.25;5056377;28;20095;-70
2022/09/27 04:23:13;;;;;;;5.07;0.90;;;;;;;8.42;98.90;99640.22;5079699;28;20092;-70
2022/09/27 04:25:50;;;;;;;6.47;1.23;;;;;;;8.45;98.25;99626.97;5062110;28;20624;-70
2022/09/27 04:28:29;;;;;;;7.38;1.08;;;;;;;8.45;97.94;99619.94;5073398;28;20116;-70
2022/09/27 04:30:56;;;;;;;5.35;0.90;;;;;;;8.43;97.56;99623.53;5051895;28;20052;-69
2022/09/27 04:33:46;;;;;;;4.80;1.00;;;;;;;8.42;97.46;99625.31;5057286;28;20048;-69
2022/09/27 04:36:34;;;;;;;6.28;1.35;;;;;;;8.39;97.69;99614.94;5070276;28;20040;-69
2022/09/27 04:39:09;;;;;;;3.78;0.82;;;;;;;8.38;97.69;99616.72;5065096;28;20045;-69
2022/09/27 04:41:40;;;;;;;4.88;0.90;;;;;;;8.37;97.61;99615.00;5055375;28;20049;-68
2022/09/27 04:44:07;;;;;;;6.28;0.70;;;;;;;8.37;97.45;99614.13;5066672;28;20096;-69
2022/09/27 04:46:34;;;;;;;3.40;0.77;;;;;;;8.36;97.20;99618.56;5075754;28;20099;-69
2022/09/27 04:49:02;;;;;;;4.90;0.90;;;;;;;8.35;97.13;99618.59;5053970;28;20056;-69
2022/09/27 04:51:31;;;;;;;5.60;1.00;;;;;;;8.36;96.96;99617.69;5072792;28;20041;-68
2022/09/27 04:53:59;;;;;;;2.58;0.68;;;;;;;8.36;96.67;99613.31;5061145;28;20091;-68
2022/09/27 04:56:29;;;;;;;5.95;1.33;;;;;;;8.36;96.91;99617.69;5061163;28;20045;-67
2022/09/27 04:58:57;;;;;;;6.00;1.10;;;;;;;8.43;96.66;99620.91;5053973;28;20038;-68
2022/09/27 05:01:24;;;;;;;5.47;0.93;;;;;;;8.43;95.93;99626.16;5053638;28;20045;-67
2022/09/27 05:04:10;;;;;;;3.38;0.82;;;;;;;8.43;95.93;99631.41;5059752;28;20179;-67
2022/09/27 05:06:39;;;;;;;4.75;0.95;;;;;;;8.42;95.88;99633.22;5079614;28;20047;-68
2022/09/27 05:09:16;;;;;;;3.40;0.73;;;;;;;8.41;95.70;99636.75;5067775;28;20044;-69
2022/09/27 05:11:55;;;;;;;2.80;0.80;;;;;;;8.42;95.49;99634.97;5052279;28;20033;-68
2022/09/27 05:14:32;;;;;;;3.65;0.50;;;;;;;8.44;94.62;99644.50;5057930;28;20048;-68
2022/09/27 05:17:15;;;;;;;3.38;0.55;;;;;;;8.40;94.12;99638.50;5058198;28;20990;-67
2022/09/27 05:20:03;;;;;;;3.78;0.60;;;;;;;8.38;94.37;99644.75;5058752;28;20130;-68
2022/09/27 05:22:41;;;;;;;4.53;0.60;;;;;;;8.39;94.55;99649.09;5082089;28;20076;-68
2022/09/27 05:25:08;;;;;;;1.95;0.57;;;;;;;8.40;94.10;99656.88;5050815;28;20044;-69
2022/09/27 05:27:35;;;;;;;3.65;0.50;;;;;;;8.37;93.74;99664.03;5065110;28;20046;-68
2022/09/27 05:30:04;;;;;;;2.25;0.68;;;;;;;8.37;93.36;99666.66;5070417;28;20053;-68
2022/09/27 05:32:48;;;;;;;2.10;0.30;;;;;;;8.36;93.60;99664.94;5055995;28;20060;-70
2022/09/27 05:35:56;;;;;;;2.92;0.40;;;;;;;8.36;93.96;99662.31;5066184;28;20728;-70
2022/09/27 05:38:34;;;;;;;1.35;0.50;;;;;;;8.38;94.08;99664.00;5065770;28;20030;-70
2022/09/27 05:41:02;;;;;;;1.98;0.50;;;;;;;8.37;94.29;99653.53;5068457;28;20041;-69
2022/09/27 05:43:30;;;;;;;3.35;0.98;;;;;;;8.39;93.29;99649.91;5065313;28;20037;-70
2022/09/27 05:46:00;;;;;;;2.22;0.47;;;;;;;8.40;93.92;99654.25;5066908;28;20065;-70
2022/09/27 05:48:29;;;;;;;3.05;0.45;;;;;;;8.41;94.11;99652.50;5049767;28;20866;-70
2022/09/27 05:51:00;;;;;;;2.78;0.50;;;;;;;8.41;94.29;99642.00;5063381;28;20037;-70
2022/09/27 05:53:31;;;;;;;3.78;0.60;;;;;;;8.42;94.63;99643.72;5060348;28;20040;-70
2022/09/27 05:56:03;;;;;;;2.47;0.57;;;;;;;8.47;93.84;99651.41;5050876;28;20523;-69
2022/09/27 05:58:50;;;;;;;1.65;0.50;;;;;;;8.47;94.23;99656.66;5064986;28;20121;-70
2022/09/27 06:01:18;;;;;;;3.17;0.82;;;;;;;8.47;94.44;99661.91;5076782;28;20052;-71
2022/09/27 06:04:14;;;;;;;2.97;0.40;;;;;;;8.49;94.18;99665.38;5065058;28;20045;-70
2022/09/27 06:06:41;;;;;;;1.15;0.55;;;;;;;8.51;94.02;99666.13;5061670;28;20488;-70
2022/09/27 06:09:11;;;;;;;1.90;0.40;;;;;;;8.53;93.55;99648.53;5070579;28;20103;-70
2022/09/27 06:11:38;;;;;;;2.05;0.40;;;;;;;8.54;93.57;99655.50;5070211;28;20076;-70
2022/09/27 06:14:12;;;;;;;3.38;0.50;;;;;;;8.54;93.78;99656.38;5082157;28;20128;-70
2022/09/27 06:16:53;;;;;;;3.90;0.50;;;;;;;8.57;94.08;99663.28;5057924;28;20064;-70
2022/09/27 06:19:24;;;;;;;4.78;0.80;;;;;;;8.57;93.78;99663.28;5070123;28;20517;-71
2022/09/27 06:21:51;;;;;;;2.95;0.90;;;;;;;8.59;94.28;99671.97;5071492;28;20477;-70
2022/09/27 06:24:19;;;;;;;1.10;0.30;;;;;;;8.59;94.21;99661.44;5071175;28;20049;-70
2022/09/27 06:26:46;;;;;;;3.25;0.60;;;;;;;8.61;92.71;99669.25;5061762;28;20037;-70
2022/09/27 06:29:17;;;;;;;1.20;0.30;;;;;;;8.61;92.27;99670.09;5058401;28;20055;-71
2022/09/27 06:31:51;;;;;;;1.67;0.52;;;;;;;8.61;93.49;99680.59;5061743;28;20510;-70
2022/09/27 06:34:24;;;;;;;1.85;0.40;;;;;;;8.65;93.82;99676.94;5068052;28;20581;-70
2022/09/27 06:36:52;;;;;;;3.03;0.63;;;;;;;8.70;92.50;99693.38;5087957;28;20130;-71
2022/09/27 06:39:19;;;;;;;1.90;0.47;;;;;;;8.73;92.16;99686.28;5070810;28;20033;-71
2022/09/27 06:42:01;;;;;;;2.88;0.50;;;;;;;8.76;93.08;99694.03;5087831;28;20045;-70
2022/09/27 06:44:48;;;;;;;2.40;0.50;;;;;;;8.80;92.21;99695.66;5059671;28;20037;-69
2022/09/27 06:47:36;;;;;;;2.33;0.50;;;;;;;8.83;92.81;99700.75;5062019;28;20525;-69
2022/09/27 06:50:23;;;;;;;3.03;0.65;;;;;;;8.84;92.98;99710.34;5053935;28;20065;-70
2022/09/27 06:52:50;;;;;;;4.13;0.85;;;;;;;8.84;92.66;99712.97;5050601;28;20046;-70
2022/09/27 06:55:18;;;;;;;3.08;0.80;;;;;;;8.82;92.10;99710.44;5062003;28;20075;-70
2022/09/27 07:00:32;;;;;;;1.60;0.55;;;;;;;8.89;92.71;99720.66;5073305;28;20059;-70
2022/09/27 07:03:06;;;;;;;2.20;0.60;;;;;;;8.91;93.21;99708.31;5052386;28;20120;-70
2022/09/27 07:05:58;;;;;;;2.92;0.70;;;;;;;9.02;92.54;99714.84;5056696;28;20045;-70
2022/09/27 07:08:40;;;;;;;2.53;1.00;;;;;;;9.15;92.61;99701.19;5051424;28;20108;-70
2022/09/27 07:11:07;;;;;;;3.95;0.60;;;;;;;9.30;93.04;99707.56;5064562;28;20030;-70
2022/09/27 07:13:39;;;;;;;3.60;0.60;;;;;;;9.45;91.67;99712.16;5053345;28;20522;-70
2022/09/27 07:16:06;;;;;;;3.80;0.80;;;;;;;9.54;91.94;99703.00;5070908;28;20131;-70
2022/09/27 07:18:33;;;;;;;1.40;0.60;;;;;;;9.56;92.22;99710.84;5087360;28;20558;-70
2022/09/27 07:21:00;;;;;;;1.65;0.57;;;;;;;9.55;91.99;99703.88;5066080;28;20048;-70
2022/09/27 07:23:29;;;;;;;2.20;0.60;;;;;;;9.51;92.08;99716.31;5050947;28;20041;-70
2022/09/27 07:26:05;;;;;;;2.80;0.50;;;;;;;9.48;91.94;99708.53;5062830;28;20135;-70
2022/09/27 07:28:34;;;;;;;2.53;0.75;;;;;;;9.50;91.77;99709.34;5049962;28;20057;-70
2022/09/27 07:31:02;;;;;;;3.03;0.90;;;;;;;9.52;91.07;99710.09;5054269;28;20037;-70
2022/09/27 07:33:31;;;;;;;4.80;0.95;;;;;;;9.55;91.25;99715.25;5085949;28;20041;-70
2022/09/27 07:36:07;;;;;;;2.63;0.80;;;;;;;9.55;91.56;99715.25;5063029;28;20048;-70
2022/09/27 07:38:35;;;;;;;;;;;;;;;9.61;92.27;99736.00;5064564;28;20069;-70
2022/09/27 07:41:09;;;;;;;2.60;0.85;;;;;;;9.64;91.09;99735.88;5049759;28;19990;-70
2022/09/27 07:43:36;;;;;;;1.52;0.82;;;;;;;9.66;92.18;99737.59;5051496;28;20045;-70
2022/09/27 07:46:04;;;;;;;1.77;0.63;;;;;;;9.70;91.44;99740.03;5064272;28;20049;-70
2022/09/27 07:48:51;;;;;;;1.80;1.00;;;;;;;9.73;91.33;99739.03;5079116;28;20045;-70
2022/09/27 07:51:35;;;;;;;3.38;1.00;;;;;;;9.83;91.80;99748.22;5053226;28;20076;-71
2022/09/27 07:54:09;;;;;;;1.52;1.00;;;;;;;9.92;91.73;99741.69;5073776;28;20039;-70
2022/09/27 07:57:10;;;;;;;4.82;1.10;;;;;;;9.94;90.22;99753.84;5055208;28;20038;-70
2022/09/27 07:59:50;;;;;;;1.95;0.95;;;;;;;9.94;90.55;99750.38;5054777;28;20038;-70
2022/09/27 08:02:20;;;;;;;3.13;0.82;;;;;;;9.90;89.58;99754.06;5068738;28;20042;-70
2022/09/27 08:04:48;;;;;;;2.15;0.90;;;;;;;9.86;90.07;99753.34;5056675;28;20561;-70
2022/09/27 08:07:16;;;;;;;3.33;1.00;;;;;;;9.82;89.83;99749.13;5057267;28;20076;-70
2022/09/27 08:09:47;;;;;;;2.20;1.20;;;;;;;9.79;89.90;99752.78;5061310;28;20041;-70
2022/09/27 08:12:15;;;;;;;1.52;1.27;;;;;;;9.81;91.13;99759.75;5072677;28;20500;-70
2022/09/27 08:14:43;;;;;;;3.53;1.35;;;;;;;9.83;90.19;99760.53;5087615;28;20067;-70
2022/09/27 08:17:16;;;;;;;3.63;1.55;;;;;;;9.84;90.51;99765.72;5052842;28;20470;-69
2022/09/27 08:20:05;;;;;;;3.05;1.15;;;;;;;9.87;89.55;99762.97;5054816;28;20052;-70
2022/09/27 08:22:52;;;;;;;3.30;1.27;;;;;;;9.90;90.14;99770.75;5060127;28;20052;-69
2022/09/27 08:25:30;;;;;;;4.07;1.60;;;;;;;9.97;91.13;99775.72;5075252;28;20071;-70
2022/09/27 08:28:03;;;;;;;2.70;1.30;;;;;;;9.99;90.59;99772.09;5072635;28;20125;-70
2022/09/27 08:30:43;;;;;;;4.90;1.63;;;;;;;9.98;91.50;99778.28;5084193;28;20118;-70
2022/09/27 08:33:10;;;;;;;4.25;1.60;;;;;;;9.99;91.09;99782.63;5056855;28;20037;-71
2022/09/27 08:35:38;;;;;;;2.38;1.58;;;;;;;9.98;91.41;99780.91;5074252;28;20033;-70
2022/09/27 08:38:06;;;;;;;3.33;1.52;;;;;;;9.93;90.88;99799.53;5072424;28;20132;-70
2022/09/27 08:41:30;;;;;;;6.90;1.88;;;;;;;9.89;90.66;99791.84;5068589;28;20072;-70
2022/09/27 08:44:25;;;;;;;4.55;2.10;;;;;;;9.81;91.25;99788.69;5050842;28;20060;-69
2022/09/27 08:47:14;;;;;;;4.18;2.15;;;;;;;9.79;91.97;99794.88;5052475;28;20044;-70
2022/09/27 08:50:08;;;;;;;5.97;2.42;;;;;;;9.77;92.54;99788.81;5052469;28;20080;-69
2022/09/27 08:52:49;;;;;;;5.40;2.22;;;;;;;9.83;92.72;99786.88;5053657;28;20044;-70
2022/09/27 08:55:39;;;;;;;4.15;2.30;;;;;;;9.90;92.83;99788.28;5064198;28;20085;-70
2022/09/27 08:58:24;;;;;;;3.28;2.30;;;;;;;10.02;92.50;99781.66;5052154;28;20049;-69
2022/09/27 09:00:57;;;;;;;5.63;2.58;;;;;;;10.14;92.34;99785.50;5055104;28;20148;-70
2022/09/27 09:03:34;;;;;;;6.15;2.40;;;;;;;10.27;92.03;99784.03;5072191;28;20503;-70
2022/09/27 09:06:27;;;;;;;3.13;2.30;;;;;;;10.37;90.47;99790.59;5068637;28;20499;-70
2022/09/27 09:09:29;;;;;;;5.40;2.60;;;;;;;10.40;90.56;99779.06;5068859;28;20048;-71
2022/09/27 09:12:47;;;;;;;4.85;2.70;;;;;;;10.42;89.88;99782.50;5052053;28;20044;-71
2022/09/27 09:15:58;;;;;;;4.30;2.47;;;;;;;10.50;90.20;99784.75;5052337;28;20393;-71
2022/09/27 09:18:56;;;;;;;6.50;2.90;;;;;;;10.57;89.61;99789.66;5066780;28;20143;-71
2022/09/27 09:22:19;;;;;;;4.15;2.10;;;;;;;10.67;88.17;99779.56;5071343;28;20050;-71
2022/09/27 09:25:17;;;;;;;5.18;2.90;;;;;;;10.71;88.51;99790.78;5055722;28;20154;-71
2022/09/27 09:28:15;;;;;;;5.72;3.35;;;;;;;10.72;89.18;99787.25;5052789;28;20046;-71
2022/09/27 09:31:11;;;;;;;4.50;3.08;;;;;;;10.76;89.40;99794.06;5057473;28;20132;-70
2022/09/27 09:34:26;;;;;;;4.63;3.50;;;;;;;10.70;89.68;99794.34;5058101;28;20037;-70
2022/09/27 09:37:23;;;;;;;4.43;3.55;;;;;;;10.66;88.35;99792.78;5055761;28;20127;-70
2022/09/27 09:39:59;;;;;;;6.07;3.45;;;;;;;10.62;88.38;99797.34;5050057;28;20051;-70
2022/09/27 09:42:39;;;;;;;6.35;3.65;;;;;;;10.57;89.14;99797.56;5050003;28;20101;-70
2022/09/27 09:45:24;;;;;;;5.70;4.00;;;;;;;10.54;90.29;99788.97;5051456;28;20067;-69
2022/09/27 09:48:27;;;;;;;6.93;4.45;;;;;;;10.57;90.35;99792.28;5053545;28;20056;-69
2022/09/27 09:51:01;;;;;;;7.43;4.50;;;;;;;10.51;90.41;99784.69;5052103;28;20037;-69
2022/09/27 09:53:52;;;;;;;8.95;4.75;;;;;;;10.46;90.17;99786.66;5053974;28;20038;-69
2022/09/27 09:56:33;;;;;;;7.75;4.78;;;;;;;10.42;89.59;99779.84;5071902;28;20037;-69
2022/09/27 09:59:26;;;;;;;8.77;5.10;;;;;;;10.37;89.67;99792.34;5073315;28;20128;-69
2022/09/27 10:02:12;;;;;;;6.73;5.40;;;;;;;10.35;90.41;99794.19;5069111;28;20049;-69
2022/09/27 10:04:40;;;;;;;8.45;5.53;;;;;;;10.37;90.26;99792.34;5071844;28;21101;-69
2022/09/27 10:07:08;;;;;;;5.60;5.00;;;;;;;10.38;90.44;99784.38;5057843;28;20052;-69
2022/09/27 10:09:35;;;;;;;6.28;4.80;;;;;;;10.41;89.84;99783.41;5066324;28;20041;-70
2022/09/27 10:12:21;;;;;;;8.45;5.53;;;;;;;10.38;89.46;99787.00;5066666;28;20051;-69
2022/09/27 10:14:52;;;;;;;9.77;5.75;;;;;;;10.39;90.45;99790.53;5052444;28;20541;-69
2022/09/27 10:17:27;;;;;;;7.75;4.63;;;;;;;10.44;90.43;99785.88;5071266;28;20049;-69
2022/09/27 10:19:58;;;;;;;8.95;5.25;;;;;;;10.46;90.33;99789.31;5086206;28;20041;-69
2022/09/27 10:22:35;;;;;;;5.60;4.57;;;;;;;10.49;89.41;99790.94;5071971;28;20045;-69
2022/09/27 10:25:15;;;;;;;5.30;4.53;;;;;;;10.50;90.06;99785.63;5050923;28;20125;-69
2022/09/27 10:27:54;;;;;;;7.05;5.30;;;;;;;10.62;91.11;99785.97;5057341;28;20041;-69
2022/09/27 10:30:32;;;;;;;6.43;4.18;;;;;;;10.72;89.16;99782.81;5070077;28;20725;-69
2022/09/27 10:33:20;;;;;;;7.47;4.90;;;;;;;10.74;89.29;99779.25;5070910;28;20040;-69
2022/09/27 10:35:55;;;;;;;5.53;4.28;;;;;;;10.74;87.57;99782.72;5086075;28;20100;-69
2022/09/27 10:38:32;;;;;;;6.47;4.18;;;;;;;10.74;87.54;99787.16;5051826;28;20045;-69
2022/09/27 10:41:34;;;;;;;6.72;4.63;;;;;;;10.70;88.20;99783.81;5061937;28;20045;-69
2022/09/27 10:44:14;;;;;;;7.07;3.97;;;;;;;10.69;87.78;99788.22;5060684;28;20041;-69
2022/09/27 10:46:56;;;;;;;4.93;3.60;;;;;;;10.66;86.37;99793.66;5050804;28;20145;-69
2022/09/27 10:49:44;;;;;;;7.35;3.85;;;;;;;10.57;87.33;99802.00;5051254;28;20141;-69
2022/09/27 10:52:41;;;;;;;4.97;3.70;;;;;;;10.56;88.20;99787.09;5063486;28;20044;-69
2022/09/27 10:55:24;;;;;;;5.65;3.55;;;;;;;10.56;86.85;99797.66;5069679;28;20094;-69
2022/09/27 10:57:55;;;;;;;5.38;2.80;;;;;;;10.51;86.65;99794.34;5083281;28;20045;-68
2022/09/27 11:00:26;;;;;;;3.85;2.47;;;;;;;10.56;87.93;99800.28;5059461;28;20095;-69
2022/09/27 11:03:05;;;;;;;3.30;2.13;;;;;;;10.61;87.00;99795.63;5051002;28;20557;-69
2022/09/27 11:05:38;;;;;;;3.17;2.05;;;;;;;10.65;86.95;99801.63;5063695;28;20045;-69
2022/09/27 11:08:17;;;;;;;3.13;1.80;;;;;;;10.65;85.46;99799.84;5051572;28;20125;-69
2022/09/27 11:11:15;;;;;;;4.50;2.05;;;;;;;10.67;86.80;99791.84;5051214;28;20092;-69
2022/09/27 11:14:16;;;;;;;3.30;1.90;;;;;;;10.75;86.87;99792.34;5059175;28;20194;-69
2022/09/27 11:17:08;;;;;;;3.20;1.27;;;;;;;10.77;85.25;99795.75;5066598;28;20045;-69
2022/09/27 11:20:03;;;;;;;3.60;1.25;;;;;;;10.80;nan;99794.75;5062262;28;20100;-70
2022/09/27 11:23:27;;;;;;;2.95;1.63;;;;;;;10.81;85.38;99802.63;5050361;28;20040;-69
2022/09/27 11:26:31;;;;;;;3.65;1.40;;;;;;;10.89;85.15;99796.94;5048775;28;20046;-69
2022/09/27 11:29:39;;;;;;;2.63;1.55;;;;;;;10.92;85.09;99802.09;5066082;28;20045;-70
2022/09/27 11:32:50;;;;;;;1.40;1.00;;;;;;;10.99;84.58;99794.72;5040782;28;20128;-70
2022/09/27 11:35:58;;;;;;;2.55;1.23;;;;;;;10.98;83.56;99798.28;5059873;28;20037;-70
2022/09/27 11:38:52;;;;;;;1.85;1.00;;;;;;;10.92;83.05;99799.44;5050243;28;20041;-70
2022/09/27 11:41:40;;;;;;;3.15;1.10;;;;;;;10.91;83.38;99794.25;5068067;28;20061;-71
2022/09/27 11:44:31;;;;;;;1.77;0.70;;;;;;;11.01;82.13;99808.72;5055719;28;20503;-70
2022/09/27 11:48:02;;;;;;;3.47;1.00;;;;;;;11.15;82.97;99795.69;5049566;28;20042;-70
2022/09/27 11:51:10;;;;;;;1.35;0.95;;;;;;;11.45;82.71;99807.44;5042243;28;20115;-70
2022/09/27 11:54:04;;;;;;;2.63;0.80;;;;;;;11.44;79.89;99809.22;5043836;28;20054;-70
2022/09/27 11:57:22;;;;;;;1.88;1.00;;;;;;;11.31;81.97;99813.41;5050350;28;20530;-70
2022/09/27 12:00:13;;;;;;;1.35;0.70;;;;;;;11.15;82.02;99803.59;5054080;28;20045;-71
2022/09/27 12:03:38;;;;;;;1.08;0.55;;;;;;;10.99;81.13;99803.47;5050205;28;20042;-71
2022/09/27 12:06:17;;;;;;;1.70;0.70;;;;;;;10.80;81.06;99805.31;5052260;28;20600;-71
2022/09/27 12:09:07;;;;;;;1.50;0.60;;;;;;;10.74;81.59;99800.34;5066036;28;20045;-70
2022/09/27 12:11:47;;;;;;;1.10;0.50;;;;;;;10.71;82.71;99810.09;5049727;28;20046;-71
2022/09/27 12:14:37;;;;;;;2.15;0.60;;;;;;;10.75;82.12;99796.78;5066923;28;20144;-71
2022/09/27 12:17:14;;;;;;;1.25;0.50;;;;;;;10.76;82.39;99799.31;5085981;28;20147;-71
2022/09/27 12:19:51;;;;;;;1.05;0.40;;;;;;;10.81;82.22;99807.00;5068235;28;20049;-71
2022/09/27 12:22:50;;;;;;;10.18;0.68;;;;;;;10.77;82.51;99800.19;5069483;28;20071;-71
2022/09/27 12:26:13;;;;;;;0.90;0.52;;;;;;;10.79;84.33;99798.31;5049313;28;20140;-70
2022/09/27 12:28:54;;;;;;;2.75;0.70;;;;;;;10.77;83.70;99797.56;5060013;28;20049;-70
2022/09/27 12:31:43;;;;;;;4.20;0.60;;;;;;;10.77;84.10;99790.50;5064078;28;20037;-68
2022/09/27 12:34:29;;;;;;;3.08;0.60;;;;;;;10.81;83.13;99785.91;5057251;28;20046;-69
2022/09/27 12:37:12;;;;;;;1.48;0.52;;;;;;;10.83;83.51;99779.66;5061723;28;20037;-69
2022/09/27 12:39:56;;;;;;;2.72;0.90;;;;;;;10.86;83.80;99771.59;5055383;28;20045;-69
2022/09/27 12:42:34;;;;;;;2.65;0.93;;;;;;;10.92;83.82;99772.25;5034748;28;20565;-71
2022/09/27 12:45:15;;;;;;;;;;;;;;;10.90;82.47;99774.94;5032862;28;20578;-67
2022/09/27 12:48:20;;;;;;;3.67;0.70;;;;;;;10.90;81.58;99768.81;5031859;28;19925;-70